createdAt,value
2017-04-22T00:00:14.981Z,11.30
2017-04-22T00:01:12.908Z,11.40
2017-04-22T00:02:10.804Z,11.30
2017-04-22T00:03:08.993Z,11.40
2017-04-22T00:04:07.645Z,11.30
2017-04-22T00:05:05.552Z,11.30
2017-04-22T00:06:03.617Z,11.40
2017-04-22T00:07:01.520Z,11.40
2017-04-22T00:07:59.397Z,11.40
2017-04-22T00:08:58.074Z,11.40
2017-04-22T00:09:55.925Z,11.40
2017-04-22T00:10:53.790Z,11.40
2017-04-22T00:11:51.845Z,11.40
2017-04-22T00:12:49.708Z,11.40
2017-04-22T00:13:47.596Z,11.40
2017-04-22T00:14:45.575Z,11.40
2017-04-22T00:15:43.497Z,11.30
2017-04-22T00:16:41.408Z,11.30
2017-04-22T00:17:39.661Z,11.30
2017-04-22T00:18:37.540Z,11.40
2017-04-22T00:19:35.393Z,11.40
2017-04-22T00:20:33.337Z,11.30
2017-04-22T00:21:31.203Z,11.30
2017-04-22T00:22:29.113Z,11.30
2017-04-22T00:23:26.960Z,11.30
2017-04-22T00:24:24.815Z,11.30
2017-04-22T00:25:22.672Z,11.30
2017-04-22T00:26:20.561Z,11.30
2017-04-22T00:27:18.420Z,11.30
2017-04-22T00:28:16.276Z,11.40
2017-04-22T00:29:14.238Z,11.30
2017-04-22T00:30:12.924Z,11.30
2017-04-22T00:31:11.591Z,11.30
2017-04-22T00:32:10.268Z,11.30
2017-04-22T00:33:08.127Z,11.30
2017-04-22T00:34:05.993Z,11.30
2017-04-22T00:35:03.853Z,11.30
2017-04-22T00:36:01.784Z,11.30
2017-04-22T00:36:59.637Z,11.30
2017-04-22T00:37:57.504Z,11.40
2017-04-22T00:38:55.349Z,11.40
2017-04-22T00:39:53.209Z,11.40
2017-04-22T00:40:51.057Z,11.40
2017-04-22T00:41:48.948Z,11.30
2017-04-22T00:42:46.833Z,11.30
2017-04-22T00:43:45.441Z,11.30
2017-04-22T00:44:43.340Z,11.30
2017-04-22T00:45:41.986Z,11.30
2017-04-22T00:46:40.011Z,11.30
2017-04-22T00:47:37.882Z,11.30
2017-04-22T00:48:35.737Z,11.30
2017-04-22T00:49:33.597Z,11.30
2017-04-22T00:50:31.448Z,11.30
2017-04-22T00:51:29.293Z,11.30
2017-04-22T00:52:27.208Z,11.30
2017-04-22T00:53:25.056Z,11.30
2017-04-22T00:54:22.894Z,11.30
2017-04-22T00:55:20.769Z,11.30
2017-04-22T00:56:18.617Z,11.30
2017-04-22T00:57:16.549Z,11.30
2017-04-22T00:58:14.437Z,11.20
2017-04-22T00:59:12.389Z,11.20
2017-04-22T01:00:10.300Z,11.20
2017-04-22T01:01:09.029Z,11.20
2017-04-22T01:02:06.909Z,11.20
2017-04-22T01:03:05.549Z,11.10
2017-04-22T01:04:03.438Z,11.10
2017-04-22T01:05:02.045Z,11.00
2017-04-22T01:05:59.925Z,10.90
2017-04-22T01:06:57.845Z,10.90
2017-04-22T01:07:55.760Z,10.80
2017-04-22T01:08:54.348Z,10.70
2017-04-22T01:09:52.227Z,10.70
2017-04-22T01:10:50.083Z,10.60
2017-04-22T01:11:47.952Z,10.50
2017-04-22T01:12:45.840Z,10.50
2017-04-22T01:13:43.760Z,10.40
2017-04-22T01:14:41.725Z,10.30
2017-04-22T01:15:39.637Z,10.30
2017-04-22T01:16:37.505Z,10.20
2017-04-22T01:17:35.348Z,10.10
2017-04-22T01:18:33.452Z,10.10
2017-04-22T01:19:32.113Z,10.00
2017-04-22T01:20:30.721Z,10.00
2017-04-22T01:21:28.602Z,9.90
2017-04-22T01:22:26.457Z,9.80
2017-04-22T01:23:24.321Z,9.80
2017-04-22T01:24:22.240Z,9.70
2017-04-22T01:25:20.118Z,9.70
2017-04-22T01:26:17.985Z,9.60
2017-04-22T01:27:16.604Z,9.50
2017-04-22T01:28:14.468Z,9.50
2017-04-22T01:29:12.384Z,9.50
2017-04-22T01:30:10.345Z,9.50
2017-04-22T01:31:08.197Z,9.50
2017-04-22T01:32:06.069Z,9.40
2017-04-22T01:33:04.009Z,9.40
2017-04-22T01:34:01.864Z,9.40
2017-04-22T01:34:59.790Z,9.40
2017-04-22T01:35:57.653Z,9.40
2017-04-22T01:36:55.520Z,9.40
2017-04-22T01:37:53.413Z,9.40
2017-04-22T01:38:51.280Z,9.40
2017-04-22T01:39:49.889Z,9.40
2017-04-22T01:40:47.785Z,9.40
2017-04-22T01:41:45.672Z,9.40
2017-04-22T01:42:43.584Z,9.30
2017-04-22T01:43:41.488Z,9.30
2017-04-22T01:44:39.450Z,9.30
2017-04-22T01:45:37.370Z,9.30
2017-04-22T01:46:35.229Z,9.30
2017-04-22T01:47:33.096Z,9.30
2017-04-22T01:48:30.977Z,9.30
2017-04-22T01:49:28.831Z,9.30
2017-04-22T01:50:26.693Z,9.30
2017-04-22T01:51:24.581Z,9.20
2017-04-22T01:52:22.480Z,9.20
2017-04-22T01:53:20.338Z,9.20
2017-04-22T01:54:18.202Z,9.20
2017-04-22T01:55:16.077Z,9.20
2017-04-22T01:56:14.769Z,9.10
2017-04-22T01:57:12.669Z,9.10
2017-04-22T01:58:10.568Z,9.10
2017-04-22T01:59:08.445Z,9.10
2017-04-22T02:00:06.306Z,9.10
2017-04-22T02:01:04.233Z,9.10
2017-04-22T02:02:02.122Z,9.10
2017-04-22T02:03:00.061Z,9.10
2017-04-22T02:03:57.998Z,9.00
2017-04-22T02:04:55.849Z,9.10
2017-04-22T02:05:53.711Z,9.10
2017-04-22T02:06:51.580Z,9.10
2017-04-22T02:07:49.497Z,9.10
2017-04-22T02:08:47.354Z,9.10
2017-04-22T02:09:45.268Z,9.00
2017-04-22T02:10:43.905Z,9.00
2017-04-22T02:12:40.393Z,9.00
2017-04-22T02:13:38.309Z,9.00
2017-04-22T02:14:36.909Z,8.90
2017-04-22T02:15:34.784Z,8.90
2017-04-22T02:16:32.662Z,8.90
2017-04-22T02:17:31.305Z,8.90
2017-04-22T02:18:29.197Z,8.90
2017-04-22T02:19:27.810Z,8.90
2017-04-22T02:20:25.682Z,8.90
2017-04-22T02:21:23.573Z,9.00
2017-04-22T02:22:22.181Z,8.90
2017-04-22T02:23:20.074Z,9.00
2017-04-22T02:25:16.448Z,9.00
2017-04-22T02:26:14.357Z,9.00
2017-04-22T02:27:13.007Z,8.90
2017-04-22T02:28:10.959Z,9.00
2017-04-22T02:30:08.205Z,9.00
2017-04-22T02:31:06.070Z,9.00
2017-04-22T02:32:04.669Z,9.00
2017-04-22T02:33:02.540Z,9.00
2017-04-22T02:34:00.446Z,9.00
2017-04-22T02:34:59.057Z,9.00
2017-04-22T02:35:56.936Z,9.00
2017-04-22T02:36:55.560Z,9.00
2017-04-22T02:37:53.446Z,9.00
2017-04-22T02:38:51.312Z,9.00
2017-04-22T02:39:49.962Z,9.00
2017-04-22T02:40:47.833Z,9.00
2017-04-22T02:41:45.698Z,9.00
2017-04-22T02:42:44.365Z,9.00
2017-04-22T02:43:42.314Z,9.00
2017-04-22T02:44:41.025Z,9.00
2017-04-22T02:45:38.993Z,9.00
2017-04-22T02:46:36.845Z,9.00
2017-04-22T02:47:34.705Z,9.00
2017-04-22T02:48:32.600Z,9.00
2017-04-22T02:49:31.197Z,9.00
2017-04-22T02:50:29.077Z,9.00
2017-04-22T02:51:26.949Z,9.10
2017-04-22T02:52:24.805Z,9.10
2017-04-22T02:53:22.689Z,9.00
2017-04-22T02:54:20.558Z,9.00
2017-04-22T02:55:18.436Z,9.00
2017-04-22T02:56:16.330Z,9.00
2017-04-22T02:57:14.988Z,9.10
2017-04-22T02:58:13.650Z,9.10
2017-04-22T02:59:11.765Z,9.10
2017-04-22T03:00:09.745Z,9.10
2017-04-22T03:01:07.705Z,9.10
2017-04-22T03:02:05.580Z,9.10
2017-04-22T03:03:04.193Z,9.10
2017-04-22T03:04:02.092Z,9.00
2017-04-22T03:05:00.009Z,9.10
2017-04-22T03:05:57.876Z,9.10
2017-04-22T03:06:55.781Z,9.10
2017-04-22T03:07:53.679Z,9.10
2017-04-22T03:08:51.554Z,9.00
2017-04-22T03:09:50.209Z,9.00
2017-04-22T03:10:48.113Z,9.00
2017-04-22T03:11:46.021Z,8.90
2017-04-22T03:12:44.037Z,8.90
2017-04-22T03:13:41.970Z,8.90
2017-04-22T03:14:39.898Z,8.80
2017-04-22T03:15:38.511Z,8.80
2017-04-22T03:16:36.376Z,8.80
2017-04-22T03:17:34.299Z,8.80
2017-04-22T03:18:32.190Z,8.80
2017-04-22T03:19:30.061Z,8.80
2017-04-22T03:20:28.649Z,8.80
2017-04-22T03:21:26.522Z,8.70
2017-04-22T03:22:24.406Z,8.70
2017-04-22T03:23:23.078Z,8.70
2017-04-22T03:24:20.938Z,8.70
2017-04-22T03:25:18.814Z,8.70
2017-04-22T03:26:17.436Z,8.60
2017-04-22T03:27:15.365Z,8.60
2017-04-22T03:28:13.284Z,8.60
2017-04-22T03:29:11.917Z,8.60
2017-04-22T03:30:09.815Z,8.60
2017-04-22T03:31:08.442Z,8.60
2017-04-22T03:32:06.301Z,8.60
2017-04-22T03:33:04.981Z,8.60
2017-04-22T03:34:02.884Z,8.60
2017-04-22T03:35:00.741Z,8.60
2017-04-22T03:35:58.617Z,8.60
2017-04-22T03:36:56.514Z,8.60
2017-04-22T03:37:54.377Z,8.50
2017-04-22T03:38:52.270Z,8.50
2017-04-22T03:39:50.153Z,8.50
2017-04-22T03:40:48.765Z,8.40
2017-04-22T03:41:46.617Z,8.40
2017-04-22T03:42:44.525Z,8.40
2017-04-22T03:43:43.193Z,8.40
2017-04-22T03:44:41.858Z,8.30
2017-04-22T03:45:39.785Z,8.20
2017-04-22T03:46:37.669Z,8.10
2017-04-22T03:47:36.306Z,7.90
2017-04-22T03:48:34.165Z,7.80
2017-04-22T03:49:32.086Z,7.60
2017-04-22T03:50:29.957Z,7.40
2017-04-22T03:51:27.821Z,7.20
2017-04-22T03:52:25.705Z,7.10
2017-04-22T03:53:24.309Z,7.00
2017-04-22T03:54:22.205Z,6.90
2017-04-22T03:55:20.084Z,6.80
2017-04-22T03:56:17.934Z,6.70
2017-04-22T03:57:15.802Z,6.70
2017-04-22T03:58:13.729Z,6.60
2017-04-22T03:59:12.421Z,6.60
2017-04-22T04:00:10.381Z,6.60
2017-04-22T04:01:08.288Z,6.60
2017-04-22T04:02:06.174Z,6.50
2017-04-22T04:03:04.061Z,6.50
2017-04-22T04:04:01.997Z,6.50
2017-04-22T04:04:59.909Z,6.50
2017-04-22T04:05:58.518Z,6.40
2017-04-22T04:06:56.388Z,6.50
2017-04-22T04:07:55.075Z,6.40
2017-04-22T04:08:52.948Z,6.40
2017-04-22T04:09:50.826Z,6.40
2017-04-22T04:10:48.713Z,6.40
2017-04-22T04:11:46.604Z,6.40
2017-04-22T04:12:45.217Z,6.40
2017-04-22T04:13:43.106Z,6.30
2017-04-22T04:14:41.018Z,6.30
2017-04-22T04:15:38.985Z,6.20
2017-04-22T04:16:36.865Z,6.20
2017-04-22T04:17:34.742Z,6.20
2017-04-22T04:18:33.354Z,6.20
2017-04-22T04:19:31.229Z,6.20
2017-04-22T04:20:29.117Z,6.20
2017-04-22T04:21:26.993Z,6.20
2017-04-22T04:22:24.889Z,6.20
2017-04-22T04:23:22.753Z,6.20
2017-04-22T04:24:21.349Z,6.20
2017-04-22T04:25:19.213Z,6.20
2017-04-22T04:26:17.094Z,6.20
2017-04-22T04:27:14.969Z,6.20
2017-04-22T04:28:12.915Z,6.20
2017-04-22T04:29:10.805Z,6.20
2017-04-22T04:30:08.699Z,6.30
2017-04-22T04:31:06.574Z,6.30
2017-04-22T04:32:04.441Z,6.30
2017-04-22T04:33:03.052Z,6.30
2017-04-22T04:34:01.089Z,6.30
2017-04-22T04:34:58.936Z,6.30
2017-04-22T04:35:56.805Z,6.30
2017-04-22T04:36:54.697Z,6.30
2017-04-22T04:38:51.106Z,6.30
2017-04-22T04:39:48.965Z,6.30
2017-04-22T04:40:46.820Z,6.30
2017-04-22T04:41:44.748Z,6.40
2017-04-22T04:42:42.882Z,6.30
2017-04-22T04:43:40.860Z,6.40
2017-04-22T04:44:38.779Z,6.40
2017-04-22T04:45:36.649Z,6.40
2017-04-22T04:46:34.506Z,6.40
2017-04-22T04:47:32.365Z,6.40
2017-04-22T04:48:30.377Z,6.40
2017-04-22T04:49:28.303Z,6.40
2017-04-22T04:50:26.922Z,6.40
2017-04-22T04:51:24.785Z,6.50
2017-04-22T04:52:22.669Z,6.40
2017-04-22T04:53:21.266Z,6.40
2017-04-22T04:54:19.137Z,6.50
2017-04-22T04:55:17.061Z,6.50
2017-04-22T04:56:14.971Z,6.50
2017-04-22T04:57:12.903Z,6.50
2017-04-22T04:58:10.861Z,6.50
2017-04-22T04:59:08.754Z,6.50
2017-04-22T05:00:07.361Z,6.50
2017-04-22T05:01:05.241Z,6.50
2017-04-22T05:02:03.156Z,6.50
2017-04-22T05:03:01.017Z,6.50
2017-04-22T05:03:58.920Z,6.50
2017-04-22T05:04:56.776Z,6.50
2017-04-22T05:05:54.689Z,6.50
2017-04-22T05:06:52.545Z,6.50
2017-04-22T05:07:50.446Z,6.50
2017-04-22T05:08:49.049Z,6.50
2017-04-22T05:09:46.913Z,6.50
2017-04-22T05:10:44.789Z,6.50
2017-04-22T05:11:42.745Z,6.50
2017-04-22T05:12:40.713Z,6.50
2017-04-22T05:13:39.354Z,6.50
2017-04-22T05:14:37.218Z,6.50
2017-04-22T05:15:35.081Z,6.50
2017-04-22T05:16:33.682Z,6.50
2017-04-22T05:17:31.590Z,6.50
2017-04-22T05:18:29.461Z,6.50
2017-04-22T05:19:28.066Z,6.50
2017-04-22T05:20:25.949Z,6.50
2017-04-22T05:21:23.841Z,6.50
2017-04-22T05:22:21.740Z,6.50
2017-04-22T05:23:19.598Z,6.50
2017-04-22T05:24:17.514Z,6.50
2017-04-22T05:25:15.391Z,6.50
2017-04-22T05:26:13.295Z,6.60
2017-04-22T05:27:11.192Z,6.60
2017-04-22T05:28:09.129Z,6.60
2017-04-22T05:29:06.984Z,6.70
2017-04-22T05:30:04.862Z,6.60
2017-04-22T05:31:02.761Z,6.70
2017-04-22T05:32:00.613Z,6.70
2017-04-22T05:32:58.526Z,6.70
2017-04-22T05:33:56.461Z,6.70
2017-04-22T05:34:54.321Z,6.70
2017-04-22T05:35:52.250Z,6.80
2017-04-22T05:36:50.121Z,6.80
2017-04-22T05:37:47.977Z,6.80
2017-04-22T05:38:45.909Z,6.80
2017-04-22T05:39:43.777Z,6.80
2017-04-22T05:40:41.706Z,6.80
2017-04-22T05:41:39.624Z,6.80
2017-04-22T05:42:37.506Z,6.80
2017-04-22T05:43:35.370Z,6.80
2017-04-22T05:44:33.446Z,6.80
2017-04-22T05:45:31.333Z,6.80
2017-04-22T05:46:29.957Z,6.80
2017-04-22T05:47:27.829Z,6.80
2017-04-22T05:48:25.690Z,6.80
2017-04-22T05:49:23.646Z,6.80
2017-04-22T05:50:22.257Z,6.70
2017-04-22T05:51:20.129Z,6.80
2017-04-22T05:52:17.993Z,6.80
2017-04-22T05:53:15.857Z,6.80
2017-04-22T05:54:13.759Z,6.80
2017-04-22T05:55:11.762Z,6.80
2017-04-22T05:56:09.706Z,6.80
2017-04-22T05:57:07.566Z,6.80
2017-04-22T05:58:06.193Z,6.80
2017-04-22T05:59:04.053Z,6.80
2017-04-22T06:00:01.925Z,6.80
2017-04-22T06:00:59.818Z,6.80
2017-04-22T06:01:57.682Z,6.80
2017-04-22T06:02:55.557Z,6.90
2017-04-22T06:03:53.464Z,6.90
2017-04-22T06:04:52.061Z,6.80
2017-04-22T06:05:49.969Z,6.80
2017-04-22T06:06:47.841Z,6.80
2017-04-22T06:07:46.443Z,6.80
2017-04-22T06:08:44.466Z,6.80
2017-04-22T06:09:42.394Z,6.80
2017-04-22T06:10:41.049Z,6.80
2017-04-22T06:11:39.023Z,6.80
2017-04-22T06:12:37.620Z,6.80
2017-04-22T06:13:35.493Z,6.80
2017-04-22T06:14:33.350Z,6.80
2017-04-22T06:15:31.213Z,6.80
2017-04-22T06:16:29.126Z,6.80
2017-04-22T06:17:27.024Z,6.90
2017-04-22T06:18:24.897Z,6.90
2017-04-22T06:19:23.557Z,6.90
2017-04-22T06:20:21.489Z,7.00
2017-04-22T06:21:19.350Z,7.00
2017-04-22T06:22:17.273Z,7.00
2017-04-22T06:23:15.149Z,7.00
2017-04-22T06:24:13.047Z,7.00
2017-04-22T06:25:10.943Z,7.00
2017-04-22T06:26:08.835Z,7.10
2017-04-22T06:27:07.451Z,7.00
2017-04-22T06:28:05.349Z,7.00
2017-04-22T06:29:03.988Z,7.00
2017-04-22T06:30:02.066Z,7.00
2017-04-22T06:30:59.925Z,6.90
2017-04-22T06:31:58.557Z,6.90
2017-04-22T06:32:56.651Z,6.90
2017-04-22T06:33:55.269Z,6.90
2017-04-22T06:34:53.130Z,6.90
2017-04-22T06:35:50.989Z,6.80
2017-04-22T06:36:48.861Z,6.80
2017-04-22T06:37:46.710Z,6.90
2017-04-22T06:38:44.654Z,6.90
2017-04-22T06:39:43.449Z,6.80
2017-04-22T06:40:42.146Z,6.80
2017-04-22T06:41:40.081Z,6.90
2017-04-22T06:42:38.685Z,6.90
2017-04-22T06:43:36.581Z,6.90
2017-04-22T06:44:34.453Z,6.90
2017-04-22T06:45:33.049Z,6.90
2017-04-22T06:46:30.926Z,7.00
2017-04-22T06:47:28.781Z,7.00
2017-04-22T06:48:26.638Z,6.90
2017-04-22T06:49:24.551Z,6.90
2017-04-22T06:50:22.441Z,6.90
2017-04-22T06:51:20.313Z,6.90
2017-04-22T06:52:18.280Z,6.90
2017-04-22T06:53:16.188Z,7.00
2017-04-22T06:54:14.123Z,7.00
2017-04-22T06:55:12.110Z,7.00
2017-04-22T06:57:08.601Z,7.10
2017-04-22T06:58:06.513Z,7.10
2017-04-22T06:59:05.139Z,7.10
2017-04-22T07:00:03.034Z,7.10
2017-04-22T07:01:01.697Z,7.10
2017-04-22T07:02:00.309Z,7.10
2017-04-22T07:02:58.170Z,7.10
2017-04-22T07:03:56.090Z,7.10
2017-04-22T07:04:54.008Z,7.20
2017-04-22T07:05:51.877Z,7.20
2017-04-22T07:06:50.531Z,7.20
2017-04-22T07:07:48.401Z,7.30
2017-04-22T07:08:47.005Z,7.30
2017-04-22T07:09:44.941Z,7.30
2017-04-22T07:10:42.820Z,7.20
2017-04-22T07:11:40.716Z,7.20
2017-04-22T07:12:39.365Z,7.20
2017-04-22T07:13:37.227Z,7.20
2017-04-22T07:14:35.084Z,7.20
2017-04-22T07:15:33.729Z,7.20
2017-04-22T07:16:31.640Z,7.20
2017-04-22T07:17:29.505Z,7.20
2017-04-22T07:18:27.473Z,7.20
2017-04-22T07:19:25.374Z,7.20
2017-04-22T07:20:24.023Z,7.20
2017-04-22T07:21:21.933Z,7.30
2017-04-22T07:22:19.813Z,7.30
2017-04-22T07:23:17.673Z,7.30
2017-04-22T07:24:15.569Z,7.40
2017-04-22T07:25:13.481Z,7.40
2017-04-22T07:26:11.381Z,7.50
2017-04-22T07:27:09.379Z,7.50
2017-04-22T07:28:07.238Z,7.50
2017-04-22T07:29:05.101Z,7.50
2017-04-22T07:30:03.713Z,7.50
2017-04-22T07:31:01.606Z,7.50
2017-04-22T07:31:59.530Z,7.50
2017-04-22T07:32:57.414Z,7.50
2017-04-22T07:33:55.298Z,7.40
2017-04-22T07:34:53.230Z,7.40
2017-04-22T07:35:51.863Z,7.40
2017-04-22T07:36:49.739Z,7.50
2017-04-22T07:37:47.682Z,7.50
2017-04-22T07:38:45.557Z,7.50
2017-04-22T07:39:44.241Z,7.50
2017-04-22T07:40:42.135Z,7.50
2017-04-22T07:41:40.825Z,7.40
2017-04-22T07:43:37.317Z,7.50
2017-04-22T07:44:35.177Z,7.50
2017-04-22T07:45:33.039Z,7.50
2017-04-22T07:46:30.905Z,7.50
2017-04-22T07:47:28.773Z,7.50
2017-04-22T07:48:27.413Z,7.50
2017-04-22T07:49:25.273Z,7.60
2017-04-22T07:50:23.129Z,7.70
2017-04-22T07:51:20.985Z,7.70
2017-04-22T07:52:19.814Z,7.60
2017-04-22T07:53:17.753Z,7.70
2017-04-22T07:54:15.697Z,7.70
2017-04-22T07:55:13.642Z,7.70
2017-04-22T07:56:11.576Z,7.80
2017-04-22T07:57:10.222Z,7.80
2017-04-22T07:58:08.091Z,7.80
2017-04-22T07:59:05.984Z,7.80
2017-04-22T08:00:03.871Z,7.80
2017-04-22T08:01:01.753Z,7.90
2017-04-22T08:02:00.364Z,7.90
2017-04-22T08:02:58.266Z,7.80
2017-04-22T08:03:56.924Z,7.80
2017-04-22T08:04:54.829Z,7.80
2017-04-22T08:05:52.730Z,7.80
2017-04-22T08:06:50.588Z,7.70
2017-04-22T08:07:48.452Z,7.70
2017-04-22T08:08:47.170Z,7.60
2017-04-22T08:09:45.245Z,7.60
2017-04-22T08:10:44.330Z,7.60
2017-04-22T08:11:42.281Z,7.60
2017-04-22T08:13:38.772Z,7.70
2017-04-22T08:14:36.669Z,7.80
2017-04-22T08:15:34.533Z,7.80
2017-04-22T08:16:32.785Z,7.80
2017-04-22T08:17:31.433Z,7.90
2017-04-22T08:18:29.313Z,7.90
2017-04-22T08:19:27.953Z,7.90
2017-04-22T08:20:25.829Z,8.00
2017-04-22T08:21:24.441Z,8.00
2017-04-22T08:22:22.301Z,8.10
2017-04-22T08:23:20.193Z,8.10
2017-04-22T08:24:18.130Z,8.10
2017-04-22T08:25:15.992Z,8.10
2017-04-22T08:27:12.466Z,8.10
2017-04-22T08:28:10.361Z,8.10
2017-04-22T08:29:08.297Z,8.10
2017-04-22T08:30:06.293Z,8.10
2017-04-22T08:31:04.927Z,8.20
2017-04-22T08:32:02.789Z,8.20
2017-04-22T08:33:00.657Z,8.20
2017-04-22T08:33:59.269Z,8.20
2017-04-22T08:34:57.165Z,8.30
2017-04-22T08:35:55.022Z,8.40
2017-04-22T08:36:53.694Z,8.50
2017-04-22T08:37:52.286Z,8.50
2017-04-22T08:38:50.157Z,8.60
2017-04-22T08:39:48.091Z,8.60
2017-04-22T08:40:45.975Z,8.60
2017-04-22T08:41:43.892Z,8.60
2017-04-22T08:42:41.837Z,8.60
2017-04-22T08:43:40.457Z,8.50
2017-04-22T08:44:38.320Z,8.50
2017-04-22T08:45:36.205Z,8.50
2017-04-22T08:46:34.817Z,8.50
2017-04-22T08:47:32.669Z,8.50
2017-04-22T08:48:30.573Z,8.50
2017-04-22T08:49:29.176Z,8.50
2017-04-22T08:50:27.040Z,8.50
2017-04-22T08:51:24.941Z,8.50
2017-04-22T08:52:23.578Z,8.50
2017-04-22T08:53:21.463Z,8.60
2017-04-22T08:54:20.081Z,8.60
2017-04-22T08:55:18.017Z,8.60
2017-04-22T08:56:15.880Z,8.70
2017-04-22T08:57:13.801Z,8.70
2017-04-22T08:58:11.752Z,8.80
2017-04-22T08:59:09.751Z,8.80
2017-04-22T09:00:07.651Z,8.80
2017-04-22T09:01:06.338Z,8.80
2017-04-22T09:02:04.225Z,8.80
2017-04-22T09:03:02.086Z,8.80
2017-04-22T09:03:59.946Z,8.80
2017-04-22T09:04:57.826Z,8.80
2017-04-22T09:05:56.434Z,8.70
2017-04-22T09:06:54.336Z,8.70
2017-04-22T09:07:53.022Z,8.60
2017-04-22T09:08:50.902Z,8.60
2017-04-22T09:09:48.757Z,8.60
2017-04-22T09:10:46.617Z,8.70
2017-04-22T09:11:44.595Z,8.70
2017-04-22T09:12:42.489Z,8.70
2017-04-22T09:13:40.433Z,8.70
2017-04-22T09:14:38.316Z,8.70
2017-04-22T09:15:36.161Z,8.70
2017-04-22T09:16:34.022Z,8.70
2017-04-22T09:17:31.925Z,8.70
2017-04-22T09:18:30.554Z,8.70
2017-04-22T09:19:28.417Z,8.70
2017-04-22T09:20:26.329Z,8.70
2017-04-22T09:21:24.193Z,8.70
2017-04-22T09:22:22.121Z,8.70
2017-04-22T09:23:19.985Z,8.80
2017-04-22T09:24:17.842Z,8.80
2017-04-22T09:25:15.725Z,8.90
2017-04-22T09:26:13.673Z,8.90
2017-04-22T09:27:11.598Z,9.00
2017-04-22T09:28:09.531Z,8.90
2017-04-22T09:29:07.420Z,9.00
2017-04-22T09:30:05.340Z,8.90
2017-04-22T09:31:03.212Z,9.00
2017-04-22T09:32:01.083Z,9.00
2017-04-22T09:32:59.002Z,9.00
2017-04-22T09:33:56.870Z,9.00
2017-04-22T09:34:54.758Z,9.10
2017-04-22T09:35:52.628Z,9.10
2017-04-22T09:36:51.241Z,9.10
2017-04-22T09:37:49.099Z,9.10
2017-04-22T09:38:47.037Z,9.10
2017-04-22T09:39:44.917Z,8.90
2017-04-22T09:40:42.819Z,9.00
2017-04-22T09:41:40.759Z,8.90
2017-04-22T09:42:38.634Z,8.80
2017-04-22T09:43:36.528Z,8.80
2017-04-22T09:44:34.389Z,8.80
2017-04-22T09:45:32.281Z,8.70
2017-04-22T09:46:30.165Z,8.70
2017-04-22T09:47:28.019Z,8.70
2017-04-22T09:48:25.897Z,8.70
2017-04-22T09:49:23.744Z,8.60
2017-04-22T09:50:21.625Z,8.60
2017-04-22T09:51:19.481Z,8.60
2017-04-22T09:52:17.355Z,8.60
2017-04-22T09:53:15.307Z,8.70
2017-04-22T09:54:13.235Z,8.80
2017-04-22T09:55:11.129Z,8.80
2017-04-22T09:56:09.072Z,8.90
2017-04-22T09:57:06.963Z,8.90
2017-04-22T09:58:04.832Z,8.90
2017-04-22T09:59:03.482Z,8.90
2017-04-22T10:00:01.369Z,9.00
2017-04-22T10:00:59.233Z,9.00
2017-04-22T10:01:57.102Z,8.90
2017-04-22T10:02:54.990Z,8.90
2017-04-22T10:03:52.962Z,8.90
2017-04-22T10:04:51.566Z,8.90
2017-04-22T10:05:49.422Z,8.90
2017-04-22T10:06:47.291Z,8.90
2017-04-22T10:07:45.193Z,9.00
2017-04-22T10:08:43.133Z,9.00
2017-04-22T10:09:41.877Z,9.00
2017-04-22T10:10:39.796Z,9.00
2017-04-22T10:11:37.637Z,9.10
2017-04-22T10:12:35.489Z,9.10
2017-04-22T10:13:33.337Z,9.10
2017-04-22T10:14:31.222Z,9.20
2017-04-22T10:15:29.075Z,9.30
2017-04-22T10:16:26.922Z,9.30
2017-04-22T10:17:24.785Z,9.40
2017-04-22T10:18:22.853Z,9.40
2017-04-22T10:19:20.709Z,9.50
2017-04-22T10:20:19.313Z,9.40
2017-04-22T10:21:17.253Z,9.40
2017-04-22T10:22:15.138Z,9.50
2017-04-22T10:23:13.061Z,9.50
2017-04-22T10:24:11.021Z,9.40
2017-04-22T10:25:08.913Z,9.50
2017-04-22T10:26:06.809Z,9.60
2017-04-22T10:27:04.665Z,9.40
2017-04-22T10:28:02.525Z,9.40
2017-04-22T10:29:00.409Z,9.40
2017-04-22T10:29:58.325Z,9.40
2017-04-22T10:30:56.193Z,9.40
2017-04-22T10:31:54.053Z,9.40
2017-04-22T10:32:51.911Z,9.50
2017-04-22T10:33:49.776Z,9.50
2017-04-22T10:34:47.732Z,9.60
2017-04-22T10:35:45.692Z,9.50
2017-04-22T10:36:43.617Z,9.50
2017-04-22T10:37:41.530Z,9.50
2017-04-22T10:38:39.427Z,9.60
2017-04-22T10:39:37.282Z,9.70
2017-04-22T10:40:35.154Z,9.70
2017-04-22T10:41:33.067Z,9.70
2017-04-22T10:42:31.318Z,9.70
2017-04-22T10:43:29.202Z,9.80
2017-04-22T10:44:27.193Z,9.80
2017-04-22T10:45:25.809Z,9.90
2017-04-22T10:46:23.715Z,9.90
2017-04-22T10:47:22.313Z,9.90
2017-04-22T10:48:20.165Z,9.90
2017-04-22T10:49:18.085Z,10.00
2017-04-22T10:50:15.945Z,10.00
2017-04-22T10:51:13.846Z,10.00
2017-04-22T10:52:11.844Z,10.00
2017-04-22T10:53:10.521Z,10.10
2017-04-22T10:54:08.394Z,10.10
2017-04-22T10:55:06.273Z,10.00
2017-04-22T10:56:04.140Z,10.00
2017-04-22T10:57:02.093Z,10.00
2017-04-22T10:58:06.443Z,10.00
2017-04-22T10:59:04.720Z,9.90
2017-04-22T11:00:02.609Z,9.90
2017-04-22T11:01:00.477Z,9.90
2017-04-22T11:01:59.142Z,9.90
2017-04-22T11:02:57.761Z,9.90
2017-04-22T11:03:55.625Z,9.80
2017-04-22T11:04:53.486Z,9.80
2017-04-22T11:05:51.365Z,9.80
2017-04-22T11:06:50.006Z,9.70
2017-04-22T11:07:47.897Z,9.80
2017-04-22T11:08:45.806Z,9.80
2017-04-22T11:09:43.701Z,9.80
2017-04-22T11:10:41.633Z,9.90
2017-04-22T11:11:39.573Z,9.90
2017-04-22T11:12:37.473Z,10.00
2017-04-22T11:13:35.341Z,10.00
2017-04-22T11:14:33.199Z,9.90
2017-04-22T11:15:31.061Z,9.90
2017-04-22T11:16:28.928Z,9.90
2017-04-22T11:18:26.258Z,9.90
2017-04-22T11:19:24.134Z,10.00
2017-04-22T11:20:22.013Z,10.00
2017-04-22T11:21:19.905Z,10.00
2017-04-22T11:22:17.832Z,9.90
2017-04-22T11:23:15.743Z,9.90
2017-04-22T11:24:13.654Z,9.90
2017-04-22T11:25:11.613Z,9.80
2017-04-22T11:26:09.544Z,9.80
2017-04-22T11:27:07.413Z,9.80
2017-04-22T11:28:05.305Z,9.80
2017-04-22T11:29:03.951Z,9.90
2017-04-22T11:30:01.829Z,9.90
2017-04-22T11:31:00.481Z,9.90
2017-04-22T11:32:56.873Z,10.10
2017-04-22T11:33:54.797Z,10.20
2017-04-22T11:34:52.674Z,10.20
2017-04-22T11:35:50.548Z,10.20
2017-04-22T11:36:48.406Z,10.20
2017-04-22T11:37:46.319Z,10.20
2017-04-22T11:38:44.262Z,10.20
2017-04-22T11:39:42.176Z,10.20
2017-04-22T11:40:40.085Z,10.10
2017-04-22T11:41:37.956Z,10.00
2017-04-22T11:42:35.842Z,10.00
2017-04-22T11:43:34.481Z,9.90
2017-04-22T11:44:32.344Z,9.80
2017-04-22T11:45:30.985Z,9.90
2017-04-22T11:46:28.868Z,10.00
2017-04-22T11:47:26.733Z,10.00
2017-04-22T11:48:25.441Z,10.10
2017-04-22T11:49:23.349Z,10.10
2017-04-22T11:50:21.982Z,10.10
2017-04-22T11:51:19.905Z,10.10
2017-04-22T11:52:17.972Z,10.10
2017-04-22T11:53:15.899Z,10.10
2017-04-22T11:54:13.810Z,10.00
2017-04-22T11:55:11.770Z,10.00
2017-04-22T11:56:09.669Z,10.00
2017-04-22T11:57:07.540Z,10.00
2017-04-22T11:58:05.411Z,10.00
2017-04-22T11:59:04.049Z,9.90
2017-04-22T12:00:01.960Z,10.00
2017-04-22T12:01:00.578Z,10.00
2017-04-22T12:01:58.446Z,10.00
2017-04-22T12:02:56.310Z,10.10
2017-04-22T12:03:54.181Z,10.20
2017-04-22T12:04:52.796Z,10.30
2017-04-22T12:05:50.725Z,10.40
2017-04-22T12:06:48.655Z,10.40
2017-04-22T12:07:47.284Z,10.30
2017-04-22T12:08:45.226Z,10.20
2017-04-22T12:09:43.128Z,10.10
2017-04-22T12:10:41.768Z,9.90
2017-04-22T12:11:39.741Z,9.80
2017-04-22T12:12:37.608Z,9.70
2017-04-22T12:13:36.206Z,9.60
2017-04-22T12:14:34.085Z,9.60
2017-04-22T12:15:31.993Z,9.40
2017-04-22T12:16:29.861Z,9.30
2017-04-22T12:17:27.722Z,9.20
2017-04-22T12:18:25.585Z,9.10
2017-04-22T12:19:23.441Z,8.90
2017-04-22T12:20:21.345Z,8.70
2017-04-22T12:21:19.945Z,8.60
2017-04-22T12:22:17.832Z,8.40
2017-04-22T12:23:15.713Z,8.20
2017-04-22T12:24:14.392Z,7.90
2017-04-22T12:25:12.330Z,7.80
2017-04-22T12:26:11.035Z,7.80
2017-04-22T12:27:08.916Z,7.80
2017-04-22T12:29:05.309Z,7.90
2017-04-22T12:30:03.187Z,8.20
2017-04-22T12:31:01.098Z,8.70
2017-04-22T12:31:58.993Z,9.10
2017-04-22T12:32:56.865Z,9.50
2017-04-22T12:33:54.725Z,9.80
2017-04-22T12:34:53.325Z,9.90
2017-04-22T12:35:51.222Z,10.00
2017-04-22T12:36:49.097Z,10.00
2017-04-22T12:37:47.709Z,10.20
2017-04-22T12:38:45.621Z,10.60
2017-04-22T12:39:44.241Z,11.20
2017-04-22T12:40:42.134Z,11.90
2017-04-22T12:41:40.824Z,12.50
2017-04-22T12:42:38.753Z,13.30
2017-04-22T12:43:37.382Z,13.80
2017-04-22T12:44:35.249Z,14.20
2017-04-22T12:45:33.166Z,14.40
2017-04-22T12:46:31.031Z,14.10
2017-04-22T12:47:28.888Z,14.00
2017-04-22T12:48:26.757Z,14.20
2017-04-22T12:49:24.682Z,14.60
2017-04-22T12:50:22.577Z,14.90
2017-04-22T12:51:20.461Z,15.30
2017-04-22T12:52:18.309Z,15.60
2017-04-22T12:53:16.189Z,16.10
2017-04-22T12:54:14.163Z,16.40
2017-04-22T12:55:12.095Z,16.30
2017-04-22T12:56:09.989Z,16.40
2017-04-22T12:57:07.853Z,16.80
2017-04-22T12:58:06.478Z,16.90